OTBD/DOH METAR and TAF weather

Enter ICAO airport designator
Station Type Date Time Source
OTBD METAR 2022/06/27 16:30 UTC NOAA

OTBD 271630Z AUTO 31014G24KT CAVOK 35/14 Q0999 NOSIG


Station Type Date Time Source
OTBD Decoded METAR 2022/06/27 16:30 UTC NOAA

Doha International Airport, Qatar (OTBD) 25-15N 051-34E 10M
Jun 27, 2022 - 12:30 PM EDT / 2022.06.27 1630 UTC
Wind: from the NW (310 degrees) at 16 MPH (14 KT) gusting to 28 MPH (24 KT):0
Visibility: greater than 7 mile(s):0
Temperature: 95 F (35 C)
Dew Point: 57 F (14 C)
Relative Humidity: 28%
Pressure (altimeter): 29.50 in. Hg (0999 hPa)
ob: OTBD 271630Z AUTO 31014G24KT CAVOK 35/14 Q0999 NOSIG
cycle: 16

Station Type Date Time Source
OTBD TAF 2022/06/27 12:15 UTC NOAA

TAF TAF OTBD 271109Z 2712/2818 36020KT 7000 NSC PROB30
TEMPO 2712/2719 35025G35KT 4000 BLDU
TEMPO 2716/2805 30014KT

Example: see airport list